sensor_id;sensor_type;location;lat;lon;timestamp;P1;durP1;ratioP1;P2;durP2;ratioP2
11039;SDS011;5573;49.592;8.662;2023-04-03T00:00:11;93.43;;;88.50;;
11039;SDS011;5573;49.592;8.662;2023-04-03T00:02:40;86.70;;;82.13;;
11039;SDS011;5573;49.592;8.662;2023-04-03T00:05:07;90.53;;;85.77;;
11039;SDS011;5573;49.592;8.662;2023-04-03T00:07:37;90.43;;;85.70;;
11039;SDS011;5573;49.592;8.662;2023-04-03T00:10:05;91.87;;;87.13;;
11039;SDS011;5573;49.592;8.662;2023-04-03T00:12:34;95.17;;;90.17;;
11039;SDS011;5573;49.592;8.662;2023-04-03T00:15:01;104.83;;;99.33;;
11039;SDS011;5573;49.592;8.662;2023-04-03T00:17:30;95.77;;;90.73;;
11039;SDS011;5573;49.592;8.662;2023-04-03T00:19:58;96.53;;;91.43;;
11039;SDS011;5573;49.592;8.662;2023-04-03T00:22:25;90.30;;;85.60;;
11039;SDS011;5573;49.592;8.662;2023-04-03T00:24:56;88.63;;;84.03;;
11039;SDS011;5573;49.592;8.662;2023-04-03T00:27:24;92.73;;;87.90;;
11039;SDS011;5573;49.592;8.662;2023-04-03T00:29:51;83.83;;;79.40;;
11039;SDS011;5573;49.592;8.662;2023-04-03T00:32:19;97.43;;;92.40;;
11039;SDS011;5573;49.592;8.662;2023-04-03T00:34:47;88.77;;;84.17;;
11039;SDS011;5573;49.592;8.662;2023-04-03T00:37:14;84.97;;;80.50;;
11039;SDS011;5573;49.592;8.662;2023-04-03T00:39:42;88.50;;;83.93;;
11039;SDS011;5573;49.592;8.662;2023-04-03T00:42:11;86.70;;;82.27;;
11039;SDS011;5573;49.592;8.662;2023-04-03T00:47:44;79.00;;;74.93;;
11039;SDS011;5573;49.592;8.662;2023-04-03T00:50:12;85.03;;;80.57;;
11039;SDS011;5573;49.592;8.662;2023-04-03T00:52:39;94.63;;;89.63;;
11039;SDS011;5573;49.592;8.662;2023-04-03T00:55:08;93.10;;;88.30;;
11039;SDS011;5573;49.592;8.662;2023-04-03T00:57:38;90.57;;;85.80;;
11039;SDS011;5573;49.592;8.662;2023-04-03T01:00:07;98.57;;;93.47;;
11039;SDS011;5573;49.592;8.662;2023-04-03T01:02:37;90.20;;;85.47;;
11039;SDS011;5573;49.592;8.662;2023-04-03T01:05:08;90.97;;;86.23;;
11039;SDS011;5573;49.592;8.662;2023-04-03T01:07:37;102.77;;;97.37;;
11039;SDS011;5573;49.592;8.662;2023-04-03T01:10:07;92.03;;;87.30;;
11039;SDS011;5573;49.592;8.662;2023-04-03T01:12:42;94.33;;;89.47;;
11039;SDS011;5573;49.592;8.662;2023-04-03T01:15:13;89.40;;;84.77;;
11039;SDS011;5573;49.592;8.662;2023-04-03T01:17:43;86.70;;;82.20;;
11039;SDS011;5573;49.592;8.662;2023-04-03T01:23:17;83.73;;;79.43;;
11039;SDS011;5573;49.592;8.662;2023-04-03T01:25:57;83.77;;;79.47;;
11039;SDS011;5573;49.592;8.662;2023-04-03T01:28:27;82.77;;;78.50;;
11039;SDS011;5573;49.592;8.662;2023-04-03T01:30:59;81.93;;;77.70;;
11039;SDS011;5573;49.592;8.662;2023-04-03T01:33:37;79.23;;;75.20;;
11039;SDS011;5573;49.592;8.662;2023-04-03T01:36:06;89.93;;;85.27;;
11039;SDS011;5573;49.592;8.662;2023-04-03T01:38:35;82.20;;;77.97;;
11039;SDS011;5573;49.592;8.662;2023-04-03T01:41:02;81.30;;;77.07;;
11039;SDS011;5573;49.592;8.662;2023-04-03T01:43:31;75.27;;;71.37;;
11039;SDS011;5573;49.592;8.662;2023-04-03T01:45:58;83.03;;;78.73;;
11039;SDS011;5573;49.592;8.662;2023-04-03T01:48:26;85.63;;;81.23;;
11039;SDS011;5573;49.592;8.662;2023-04-03T01:50:55;87.57;;;83.03;;
11039;SDS011;5573;49.592;8.662;2023-04-03T01:53:23;90.43;;;85.73;;
11039;SDS011;5573;49.592;8.662;2023-04-03T01:55:51;94.67;;;89.73;;
11039;SDS011;5573;49.592;8.662;2023-04-03T01:58:19;88.30;;;83.70;;
11039;SDS011;5573;49.592;8.662;2023-04-03T02:00:48;95.37;;;90.47;;
11039;SDS011;5573;49.592;8.662;2023-04-03T02:03:16;91.43;;;86.70;;
11039;SDS011;5573;49.592;8.662;2023-04-03T02:05:44;92.27;;;87.43;;
11039;SDS011;5573;49.592;8.662;2023-04-03T02:08:13;102.50;;;97.23;;
11039;SDS011;5573;49.592;8.662;2023-04-03T02:10:46;93.37;;;88.57;;
11039;SDS011;5573;49.592;8.662;2023-04-03T02:13:14;91.50;;;86.77;;
11039;SDS011;5573;49.592;8.662;2023-04-03T02:15:44;89.20;;;84.57;;
11039;SDS011;5573;49.592;8.662;2023-04-03T02:18:15;86.27;;;81.80;;
11039;SDS011;5573;49.592;8.662;2023-04-03T02:20:44;92.10;;;87.30;;
11039;SDS011;5573;49.592;8.662;2023-04-03T02:23:14;92.57;;;87.77;;
11039;SDS011;5573;49.592;8.662;2023-04-03T02:25:43;83.97;;;79.57;;
11039;SDS011;5573;49.592;8.662;2023-04-03T02:28:11;84.47;;;80.10;;
11039;SDS011;5573;49.592;8.662;2023-04-03T02:30:39;82.73;;;78.40;;
11039;SDS011;5573;49.592;8.662;2023-04-03T02:33:07;86.17;;;81.70;;
11039;SDS011;5573;49.592;8.662;2023-04-03T02:35:35;79.83;;;75.70;;
11039;SDS011;5573;49.592;8.662;2023-04-03T02:38:03;91.30;;;86.57;;
11039;SDS011;5573;49.592;8.662;2023-04-03T02:40:33;83.37;;;79.03;;
11039;SDS011;5573;49.592;8.662;2023-04-03T02:43:02;83.97;;;79.60;;
11039;SDS011;5573;49.592;8.662;2023-04-03T02:45:30;90.87;;;86.17;;
11039;SDS011;5573;49.592;8.662;2023-04-03T02:47:58;82.43;;;78.17;;
11039;SDS011;5573;49.592;8.662;2023-04-03T02:50:25;86.70;;;82.23;;
11039;SDS011;5573;49.592;8.662;2023-04-03T02:52:53;83.13;;;78.83;;
11039;SDS011;5573;49.592;8.662;2023-04-03T02:55:21;83.00;;;78.67;;
11039;SDS011;5573;49.592;8.662;2023-04-03T02:57:53;75.40;;;71.30;;
11039;SDS011;5573;49.592;8.662;2023-04-03T03:00:21;73.63;;;69.77;;
11039;SDS011;5573;49.592;8.662;2023-04-03T03:02:49;75.47;;;71.57;;
11039;SDS011;5573;49.592;8.662;2023-04-03T03:05:16;87.07;;;82.47;;
11039;SDS011;5573;49.592;8.662;2023-04-03T03:07:44;88.43;;;83.90;;
11039;SDS011;5573;49.592;8.662;2023-04-03T03:10:12;75.37;;;71.40;;
11039;SDS011;5573;49.592;8.662;2023-04-03T03:12:40;78.23;;;74.17;;
11039;SDS011;5573;49.592;8.662;2023-04-03T03:15:10;82.03;;;77.73;;
11039;SDS011;5573;49.592;8.662;2023-04-03T03:17:37;76.40;;;72.40;;
11039;SDS011;5573;49.592;8.662;2023-04-03T03:20:06;78.77;;;74.67;;
11039;SDS011;5573;49.592;8.662;2023-04-03T03:22:35;85.60;;;81.17;;
11039;SDS011;5573;49.592;8.662;2023-04-03T03:25:03;78.30;;;74.27;;
11039;SDS011;5573;49.592;8.662;2023-04-03T03:27:32;78.10;;;74.03;;
11039;SDS011;5573;49.592;8.662;2023-04-03T03:30:00;75.83;;;71.83;;
11039;SDS011;5573;49.592;8.662;2023-04-03T03:32:29;78.67;;;74.53;;
11039;SDS011;5573;49.592;8.662;2023-04-03T03:34:57;72.10;;;68.33;;
11039;SDS011;5573;49.592;8.662;2023-04-03T03:37:24;83.47;;;78.87;;
11039;SDS011;5573;49.592;8.662;2023-04-03T03:39:53;86.47;;;81.87;;
11039;SDS011;5573;49.592;8.662;2023-04-03T03:42:21;79.73;;;75.57;;
11039;SDS011;5573;49.592;8.662;2023-04-03T03:44:49;71.27;;;67.53;;
11039;SDS011;5573;49.592;8.662;2023-04-03T03:47:18;71.67;;;67.87;;
11039;SDS011;5573;49.592;8.662;2023-04-03T03:49:48;78.50;;;74.40;;
11039;SDS011;5573;49.592;8.662;2023-04-03T03:52:16;77.10;;;73.03;;
11039;SDS011;5573;49.592;8.662;2023-04-03T03:54:44;71.87;;;68.07;;
11039;SDS011;5573;49.592;8.662;2023-04-03T03:57:12;80.83;;;76.60;;
11039;SDS011;5573;49.592;8.662;2023-04-03T03:59:40;82.00;;;77.70;;
11039;SDS011;5573;49.592;8.662;2023-04-03T04:02:08;75.13;;;71.20;;
11039;SDS011;5573;49.592;8.662;2023-04-03T04:04:36;66.83;;;63.37;;
11039;SDS011;5573;49.592;8.662;2023-04-03T04:07:05;72.40;;;68.60;;
11039;SDS011;5573;49.592;8.662;2023-04-03T04:09:34;70.27;;;66.57;;
11039;SDS011;5573;49.592;8.662;2023-04-03T04:12:02;67.20;;;63.67;;
11039;SDS011;5573;49.592;8.662;2023-04-03T04:14:31;69.90;;;66.27;;
11039;SDS011;5573;49.592;8.662;2023-04-03T04:16:59;70.37;;;66.47;;
11039;SDS011;5573;49.592;8.662;2023-04-03T04:19:28;69.17;;;65.57;;
11039;SDS011;5573;49.592;8.662;2023-04-03T04:21:56;65.23;;;61.83;;
11039;SDS011;5573;49.592;8.662;2023-04-03T04:24:25;74.40;;;70.47;;
11039;SDS011;5573;49.592;8.662;2023-04-03T04:26:55;71.80;;;68.03;;
11039;SDS011;5573;49.592;8.662;2023-04-03T04:29:23;60.93;;;57.73;;
11039;SDS011;5573;49.592;8.662;2023-04-03T04:31:51;72.10;;;68.37;;
11039;SDS011;5573;49.592;8.662;2023-04-03T04:34:21;68.80;;;65.17;;
11039;SDS011;5573;49.592;8.662;2023-04-03T04:36:48;63.30;;;60.03;;
11039;SDS011;5573;49.592;8.662;2023-04-03T04:39:17;61.50;;;58.30;;
11039;SDS011;5573;49.592;8.662;2023-04-03T04:41:46;60.17;;;57.03;;
11039;SDS011;5573;49.592;8.662;2023-04-03T04:44:14;65.23;;;61.00;;
11039;SDS011;5573;49.592;8.662;2023-04-03T04:46:42;64.97;;;61.53;;
11039;SDS011;5573;49.592;8.662;2023-04-03T04:49:10;60.93;;;57.73;;
11039;SDS011;5573;49.592;8.662;2023-04-03T04:51:37;61.03;;;57.83;;
11039;SDS011;5573;49.592;8.662;2023-04-03T04:54:19;60.43;;;57.07;;
11039;SDS011;5573;49.592;8.662;2023-04-03T04:56:49;58.63;;;55.53;;
11039;SDS011;5573;49.592;8.662;2023-04-03T04:59:17;55.87;;;52.90;;
11039;SDS011;5573;49.592;8.662;2023-04-03T05:01:47;61.73;;;58.53;;
11039;SDS011;5573;49.592;8.662;2023-04-03T05:04:16;52.37;;;49.67;;
11039;SDS011;5573;49.592;8.662;2023-04-03T05:06:47;57.97;;;54.87;;
11039;SDS011;5573;49.592;8.662;2023-04-03T05:09:20;54.37;;;51.57;;
11039;SDS011;5573;49.592;8.662;2023-04-03T05:11:51;54.07;;;51.23;;
11039;SDS011;5573;49.592;8.662;2023-04-03T05:14:22;55.87;;;52.97;;
11039;SDS011;5573;49.592;8.662;2023-04-03T05:16:51;59.67;;;56.57;;
11039;SDS011;5573;49.592;8.662;2023-04-03T05:19:22;53.60;;;50.80;;
11039;SDS011;5573;49.592;8.662;2023-04-03T05:21:50;55.57;;;52.60;;
11039;SDS011;5573;49.592;8.662;2023-04-03T05:24:19;51.67;;;49.00;;
11039;SDS011;5573;49.592;8.662;2023-04-03T05:26:47;59.80;;;56.63;;
11039;SDS011;5573;49.592;8.662;2023-04-03T05:29:16;62.07;;;58.77;;
11039;SDS011;5573;49.592;8.662;2023-04-03T05:31:45;53.17;;;50.37;;
11039;SDS011;5573;49.592;8.662;2023-04-03T05:34:13;50.97;;;48.33;;
11039;SDS011;5573;49.592;8.662;2023-04-03T05:36:42;55.30;;;52.43;;
11039;SDS011;5573;49.592;8.662;2023-04-03T05:39:11;60.70;;;57.53;;
11039;SDS011;5573;49.592;8.662;2023-04-03T05:41:42;61.23;;;58.00;;
11039;SDS011;5573;49.592;8.662;2023-04-03T05:44:09;55.60;;;52.67;;
11039;SDS011;5573;49.592;8.662;2023-04-03T05:46:39;56.17;;;53.20;;
11039;SDS011;5573;49.592;8.662;2023-04-03T05:49:08;55.77;;;52.87;;
11039;SDS011;5573;49.592;8.662;2023-04-03T05:51:37;60.57;;;57.40;;
11039;SDS011;5573;49.592;8.662;2023-04-03T05:54:13;65.97;;;62.50;;
11039;SDS011;5573;49.592;8.662;2023-04-03T05:56:45;62.43;;;59.07;;
11039;SDS011;5573;49.592;8.662;2023-04-03T05:59:13;63.77;;;60.37;;
11039;SDS011;5573;49.592;8.662;2023-04-03T06:01:42;55.40;;;52.50;;
11039;SDS011;5573;49.592;8.662;2023-04-03T06:04:10;60.63;;;57.47;;
11039;SDS011;5573;49.592;8.662;2023-04-03T06:06:43;62.07;;;58.80;;
11039;SDS011;5573;49.592;8.662;2023-04-03T06:09:12;65.73;;;62.30;;
11039;SDS011;5573;49.592;8.662;2023-04-03T06:11:39;62.87;;;59.53;;
11039;SDS011;5573;49.592;8.662;2023-04-03T06:14:08;66.43;;;62.90;;
11039;SDS011;5573;49.592;8.662;2023-04-03T06:16:37;66.20;;;62.67;;
11039;SDS011;5573;49.592;8.662;2023-04-03T06:19:07;64.03;;;60.70;;
11039;SDS011;5573;49.592;8.662;2023-04-03T06:21:38;70.90;;;67.17;;
11039;SDS011;5573;49.592;8.662;2023-04-03T06:24:07;69.73;;;66.03;;
11039;SDS011;5573;49.592;8.662;2023-04-03T06:26:36;70.60;;;66.90;;
11039;SDS011;5573;49.592;8.662;2023-04-03T06:29:04;75.77;;;71.63;;
11039;SDS011;5573;49.592;8.662;2023-04-03T06:31:31;66.70;;;63.13;;
11039;SDS011;5573;49.592;8.662;2023-04-03T06:33:59;78.07;;;73.93;;
11039;SDS011;5573;49.592;8.662;2023-04-03T06:36:28;76.63;;;72.47;;
11039;SDS011;5573;49.592;8.662;2023-04-03T06:38:56;79.77;;;75.53;;
11039;SDS011;5573;49.592;8.662;2023-04-03T06:41:24;93.07;;;88.10;;
11039;SDS011;5573;49.592;8.662;2023-04-03T06:43:53;90.97;;;86.00;;
11039;SDS011;5573;49.592;8.662;2023-04-03T06:46:22;113.80;;;107.53;;
11039;SDS011;5573;49.592;8.662;2023-04-03T06:48:50;109.37;;;103.53;;
11039;SDS011;5573;49.592;8.662;2023-04-03T06:51:19;121.87;;;115.23;;
11039;SDS011;5573;49.592;8.662;2023-04-03T06:53:50;120.63;;;114.03;;
11039;SDS011;5573;49.592;8.662;2023-04-03T06:56:19;132.23;;;125.27;;
11039;SDS011;5573;49.592;8.662;2023-04-03T06:58:47;132.63;;;125.53;;
11039;SDS011;5573;49.592;8.662;2023-04-03T07:01:16;146.67;;;138.83;;
11039;SDS011;5573;49.592;8.662;2023-04-03T07:03:45;156.73;;;148.23;;
11039;SDS011;5573;49.592;8.662;2023-04-03T07:06:15;152.23;;;143.90;;
11039;SDS011;5573;49.592;8.662;2023-04-03T07:08:44;155.90;;;147.70;;
11039;SDS011;5573;49.592;8.662;2023-04-03T07:11:13;160.17;;;151.60;;
11039;SDS011;5573;49.592;8.662;2023-04-03T07:13:41;145.60;;;137.73;;
11039;SDS011;5573;49.592;8.662;2023-04-03T07:16:09;151.47;;;143.57;;
11039;SDS011;5573;49.592;8.662;2023-04-03T07:18:38;141.97;;;134.40;;
11039;SDS011;5573;49.592;8.662;2023-04-03T07:21:06;135.70;;;128.50;;
11039;SDS011;5573;49.592;8.662;2023-04-03T07:23:34;136.90;;;129.63;;
11039;SDS011;5573;49.592;8.662;2023-04-03T07:26:01;135.37;;;128.17;;
11039;SDS011;5573;49.592;8.662;2023-04-03T07:28:30;134.63;;;127.47;;
11039;SDS011;5573;49.592;8.662;2023-04-03T07:30:59;144.97;;;137.17;;
11039;SDS011;5573;49.592;8.662;2023-04-03T07:33:29;138.63;;;131.27;;
11039;SDS011;5573;49.592;8.662;2023-04-03T07:35:57;136.07;;;128.90;;
11039;SDS011;5573;49.592;8.662;2023-04-03T07:38:26;139.33;;;131.73;;
11039;SDS011;5573;49.592;8.662;2023-04-03T07:40:54;144.27;;;136.40;;
11039;SDS011;5573;49.592;8.662;2023-04-03T07:43:22;141.53;;;133.77;;
11039;SDS011;5573;49.592;8.662;2023-04-03T07:45:52;151.37;;;143.03;;
11039;SDS011;5573;49.592;8.662;2023-04-03T07:48:21;136.30;;;128.80;;
11039;SDS011;5573;49.592;8.662;2023-04-03T07:50:50;136.40;;;128.83;;
11039;SDS011;5573;49.592;8.662;2023-04-03T07:53:18;130.33;;;123.10;;
11039;SDS011;5573;49.592;8.662;2023-04-03T07:55:46;145.27;;;137.27;;
11039;SDS011;5573;49.592;8.662;2023-04-03T07:58:16;133.80;;;126.43;;
11039;SDS011;5573;49.592;8.662;2023-04-03T08:00:45;123.17;;;116.47;;
11039;SDS011;5573;49.592;8.662;2023-04-03T08:03:15;145.37;;;137.30;;
11039;SDS011;5573;49.592;8.662;2023-04-03T08:05:44;136.73;;;129.23;;
11039;SDS011;5573;49.592;8.662;2023-04-03T08:08:15;144.63;;;136.50;;
11039;SDS011;5573;49.592;8.662;2023-04-03T08:10:48;144.77;;;136.60;;
11039;SDS011;5573;49.592;8.662;2023-04-03T08:13:17;148.23;;;139.73;;
11039;SDS011;5573;49.592;8.662;2023-04-03T08:15:45;146.73;;;138.50;;
11039;SDS011;5573;49.592;8.662;2023-04-03T08:18:13;151.83;;;143.30;;
11039;SDS011;5573;49.592;8.662;2023-04-03T08:20:42;154.97;;;146.20;;
11039;SDS011;5573;49.592;8.662;2023-04-03T08:23:11;161.60;;;152.67;;
11039;SDS011;5573;49.592;8.662;2023-04-03T08:25:39;171.50;;;161.97;;
11039;SDS011;5573;49.592;8.662;2023-04-03T08:28:07;182.17;;;172.13;;
11039;SDS011;5573;49.592;8.662;2023-04-03T08:30:35;169.80;;;160.37;;
11039;SDS011;5573;49.592;8.662;2023-04-03T08:33:04;175.10;;;165.47;;
11039;SDS011;5573;49.592;8.662;2023-04-03T08:35:37;170.00;;;160.77;;
11039;SDS011;5573;49.592;8.662;2023-04-03T08:38:07;180.87;;;171.03;;
11039;SDS011;5573;49.592;8.662;2023-04-03T08:40:34;185.00;;;175.23;;
11039;SDS011;5573;49.592;8.662;2023-04-03T08:43:04;191.63;;;181.47;;
11039;SDS011;5573;49.592;8.662;2023-04-03T08:45:45;179.13;;;169.67;;
11039;SDS011;5573;49.592;8.662;2023-04-03T08:48:17;181.50;;;171.83;;
11039;SDS011;5573;49.592;8.662;2023-04-03T08:50:50;184.50;;;174.57;;
11039;SDS011;5573;49.592;8.662;2023-04-03T08:53:21;192.43;;;182.00;;
11039;SDS011;5573;49.592;8.662;2023-04-03T08:55:53;188.13;;;177.93;;
11039;SDS011;5573;49.592;8.662;2023-04-03T08:58:23;180.73;;;170.97;;
11039;SDS011;5573;49.592;8.662;2023-04-03T09:00:54;166.03;;;157.17;;
11039;SDS011;5573;49.592;8.662;2023-04-03T09:03:24;159.30;;;150.83;;
11039;SDS011;5573;49.592;8.662;2023-04-03T09:05:55;167.97;;;158.87;;
11039;SDS011;5573;49.592;8.662;2023-04-03T09:08:27;161.50;;;152.70;;
11039;SDS011;5573;49.592;8.662;2023-04-03T09:11:05;146.80;;;138.80;;
11039;SDS011;5573;49.592;8.662;2023-04-03T09:13:41;156.47;;;148.00;;
11039;SDS011;5573;49.592;8.662;2023-04-03T09:16:20;151.80;;;143.73;;
11039;SDS011;5573;49.592;8.662;2023-04-03T09:18:56;146.60;;;138.83;;
11039;SDS011;5573;49.592;8.662;2023-04-03T09:21:33;130.27;;;123.33;;
11039;SDS011;5573;49.592;8.662;2023-04-03T09:24:05;124.57;;;117.50;;
11039;SDS011;5573;49.592;8.662;2023-04-03T09:26:36;136.03;;;128.73;;
11039;SDS011;5573;49.592;8.662;2023-04-03T09:29:10;127.50;;;120.73;;
11039;SDS011;5573;49.592;8.662;2023-04-03T09:31:45;127.83;;;121.00;;
11039;SDS011;5573;49.592;8.662;2023-04-03T09:34:18;128.80;;;121.93;;
11039;SDS011;5573;49.592;8.662;2023-04-03T09:36:51;115.43;;;109.43;;
11039;SDS011;5573;49.592;8.662;2023-04-03T09:39:23;115.67;;;109.63;;
11039;SDS011;5573;49.592;8.662;2023-04-03T09:41:58;118.83;;;112.53;;
11039;SDS011;5573;49.592;8.662;2023-04-03T09:44:28;123.83;;;117.27;;
11039;SDS011;5573;49.592;8.662;2023-04-03T09:46:58;120.07;;;113.80;;
11039;SDS011;5573;49.592;8.662;2023-04-03T09:49:26;114.37;;;108.37;;
11039;SDS011;5573;49.592;8.662;2023-04-03T09:51:55;113.40;;;107.40;;
11039;SDS011;5573;49.592;8.662;2023-04-03T09:54:24;113.63;;;107.67;;
11039;SDS011;5573;49.592;8.662;2023-04-03T09:56:58;107.03;;;101.47;;
11039;SDS011;5573;49.592;8.662;2023-04-03T09:59:31;117.93;;;111.67;;
11039;SDS011;5573;49.592;8.662;2023-04-03T10:02:00;103.83;;;98.43;;
11039;SDS011;5573;49.592;8.662;2023-04-03T10:04:39;104.97;;;99.50;;
11039;SDS011;5573;49.592;8.662;2023-04-03T10:07:29;99.13;;;93.87;;
11039;SDS011;5573;49.592;8.662;2023-04-03T10:10:00;85.43;;;80.97;;
11039;SDS011;5573;49.592;8.662;2023-04-03T10:12:30;82.73;;;78.37;;
11039;SDS011;5573;49.592;8.662;2023-04-03T10:14:58;84.00;;;79.63;;
11039;SDS011;5573;49.592;8.662;2023-04-03T10:17:33;82.73;;;78.33;;
11039;SDS011;5573;49.592;8.662;2023-04-03T10:20:16;76.53;;;72.53;;
11039;SDS011;5573;49.592;8.662;2023-04-03T10:22:59;70.30;;;66.53;;
11039;SDS011;5573;49.592;8.662;2023-04-03T10:25:32;74.03;;;70.13;;
11039;SDS011;5573;49.592;8.662;2023-04-03T10:28:09;67.27;;;63.77;;
11039;SDS011;5573;49.592;8.662;2023-04-03T10:30:46;70.63;;;66.87;;
11039;SDS011;5573;49.592;8.662;2023-04-03T10:33:27;73.43;;;69.57;;
11039;SDS011;5573;49.592;8.662;2023-04-03T10:36:07;68.13;;;64.50;;
11039;SDS011;5573;49.592;8.662;2023-04-03T10:38:48;65.83;;;62.37;;
11039;SDS011;5573;49.592;8.662;2023-04-03T10:41:23;71.80;;;68.03;;
11039;SDS011;5573;49.592;8.662;2023-04-03T10:43:59;76.10;;;72.07;;
11039;SDS011;5573;49.592;8.662;2023-04-03T10:46:35;72.90;;;69.00;;
11039;SDS011;5573;49.592;8.662;2023-04-03T10:49:08;62.40;;;59.10;;
11039;SDS011;5573;49.592;8.662;2023-04-03T10:51:47;56.67;;;53.70;;
11039;SDS011;5573;49.592;8.662;2023-04-03T10:54:23;55.78;;;52.80;;
11039;SDS011;5573;49.592;8.662;2023-04-03T10:56:53;46.90;;;44.40;;
11039;SDS011;5573;49.592;8.662;2023-04-03T10:59:39;43.00;;;40.73;;
11039;SDS011;5573;49.592;8.662;2023-04-03T11:02:13;46.97;;;44.47;;
11039;SDS011;5573;49.592;8.662;2023-04-03T11:04:46;46.63;;;44.20;;
11039;SDS011;5573;49.592;8.662;2023-04-03T11:07:18;46.23;;;43.80;;
11039;SDS011;5573;49.592;8.662;2023-04-03T11:09:52;46.10;;;43.67;;
11039;SDS011;5573;49.592;8.662;2023-04-03T11:12:24;43.30;;;40.97;;
11039;SDS011;5573;49.592;8.662;2023-04-03T11:14:56;43.03;;;40.73;;
11039;SDS011;5573;49.592;8.662;2023-04-03T11:17:27;44.93;;;42.53;;
11039;SDS011;5573;49.592;8.662;2023-04-03T11:20:02;49.13;;;46.50;;
11039;SDS011;5573;49.592;8.662;2023-04-03T11:22:38;51.30;;;48.53;;
11039;SDS011;5573;49.592;8.662;2023-04-03T11:25:15;50.00;;;47.30;;
11039;SDS011;5573;49.592;8.662;2023-04-03T11:27:49;43.23;;;40.93;;
11039;SDS011;5573;49.592;8.662;2023-04-03T11:30:22;40.03;;;37.87;;
11039;SDS011;5573;49.592;8.662;2023-04-03T11:33:05;43.53;;;41.27;;
11039;SDS011;5573;49.592;8.662;2023-04-03T11:35:44;43.00;;;40.63;;
11039;SDS011;5573;49.592;8.662;2023-04-03T11:38:16;43.73;;;41.40;;
11039;SDS011;5573;49.592;8.662;2023-04-03T11:40:50;48.47;;;45.83;;
11039;SDS011;5573;49.592;8.662;2023-04-03T11:43:24;48.47;;;45.87;;
11039;SDS011;5573;49.592;8.662;2023-04-03T11:45:53;46.97;;;44.43;;
11039;SDS011;5573;49.592;8.662;2023-04-03T11:51:38;46.10;;;43.70;;
11039;SDS011;5573;49.592;8.662;2023-04-03T12:12:57;36.13;;;34.23;;
11039;SDS011;5573;49.592;8.662;2023-04-03T12:18:41;41.27;;;39.07;;
11039;SDS011;5573;49.592;8.662;2023-04-03T12:21:10;35.57;;;33.70;;
11039;SDS011;5573;49.592;8.662;2023-04-03T12:24:00;44.03;;;41.67;;
11039;SDS011;5573;49.592;8.662;2023-04-03T12:26:31;44.47;;;42.10;;
11039;SDS011;5573;49.592;8.662;2023-04-03T12:29:15;42.97;;;40.67;;
11039;SDS011;5573;49.592;8.662;2023-04-03T12:31:50;46.90;;;44.37;;
11039;SDS011;5573;49.592;8.662;2023-04-03T12:37:28;41.07;;;38.90;;
11039;SDS011;5573;49.592;8.662;2023-04-03T12:40:09;47.73;;;45.17;;
11039;SDS011;5573;49.592;8.662;2023-04-03T12:42:52;46.10;;;43.67;;
11039;SDS011;5573;49.592;8.662;2023-04-03T12:45:39;44.90;;;42.57;;
11039;SDS011;5573;49.592;8.662;2023-04-03T12:48:12;47.13;;;44.60;;
11039;SDS011;5573;49.592;8.662;2023-04-03T12:50:44;47.03;;;44.57;;
11039;SDS011;5573;49.592;8.662;2023-04-03T12:53:15;49.23;;;46.63;;
11039;SDS011;5573;49.592;8.662;2023-04-03T12:55:46;46.40;;;43.90;;
11039;SDS011;5573;49.592;8.662;2023-04-03T12:58:15;48.17;;;45.57;;
11039;SDS011;5573;49.592;8.662;2023-04-03T13:00:58;48.90;;;46.30;;
11039;SDS011;5573;49.592;8.662;2023-04-03T13:03:28;50.85;;;48.17;;
11039;SDS011;5573;49.592;8.662;2023-04-03T13:05:58;52.63;;;49.83;;
11039;SDS011;5573;49.592;8.662;2023-04-03T13:08:29;55.40;;;52.47;;
11039;SDS011;5573;49.592;8.662;2023-04-03T13:10:58;54.45;;;51.58;;
11039;SDS011;5573;49.592;8.662;2023-04-03T13:13:28;58.10;;;55.03;;
11039;SDS011;5573;49.592;8.662;2023-04-03T13:15:57;62.22;;;58.97;;
11039;SDS011;5573;49.592;8.662;2023-04-03T13:18:27;56.13;;;53.13;;
11039;SDS011;5573;49.592;8.662;2023-04-03T13:21:00;57.57;;;54.50;;
11039;SDS011;5573;49.592;8.662;2023-04-03T13:23:32;53.13;;;50.27;;
11039;SDS011;5573;49.592;8.662;2023-04-03T13:26:03;55.07;;;52.03;;
11039;SDS011;5573;49.592;8.662;2023-04-03T13:28:33;55.27;;;52.30;;
11039;SDS011;5573;49.592;8.662;2023-04-03T13:31:04;50.60;;;47.90;;
11039;SDS011;5573;49.592;8.662;2023-04-03T13:33:37;52.23;;;49.33;;
11039;SDS011;5573;49.592;8.662;2023-04-03T13:36:09;54.75;;;51.80;;
11039;SDS011;5573;49.592;8.662;2023-04-03T13:38:44;45.65;;;43.20;;
11039;SDS011;5573;49.592;8.662;2023-04-03T13:41:23;43.13;;;40.80;;
11039;SDS011;5573;49.592;8.662;2023-04-03T13:43:53;44.72;;;42.33;;
11039;SDS011;5573;49.592;8.662;2023-04-03T13:46:36;36.20;;;34.22;;
11039;SDS011;5573;49.592;8.662;2023-04-03T13:49:09;40.97;;;38.73;;
11039;SDS011;5573;49.592;8.662;2023-04-03T13:51:47;37.47;;;35.43;;
11039;SDS011;5573;49.592;8.662;2023-04-03T13:54:33;38.88;;;36.78;;
11039;SDS011;5573;49.592;8.662;2023-04-03T13:57:03;40.93;;;38.70;;
11039;SDS011;5573;49.592;8.662;2023-04-03T13:59:39;40.10;;;37.80;;
11039;SDS011;5573;49.592;8.662;2023-04-03T14:02:12;39.15;;;37.03;;
11039;SDS011;5573;49.592;8.662;2023-04-03T14:04:45;40.05;;;37.88;;
11039;SDS011;5573;49.592;8.662;2023-04-03T14:07:20;40.42;;;38.20;;
11039;SDS011;5573;49.592;8.662;2023-04-03T14:09:48;34.20;;;32.30;;
11039;SDS011;5573;49.592;8.662;2023-04-03T14:12:17;30.77;;;29.08;;
11039;SDS011;5573;49.592;8.662;2023-04-03T14:14:57;23.27;;;22.03;;
11039;SDS011;5573;49.592;8.662;2023-04-03T14:17:25;27.88;;;26.38;;
11039;SDS011;5573;49.592;8.662;2023-04-03T14:19:54;27.13;;;25.63;;
11039;SDS011;5573;49.592;8.662;2023-04-03T14:22:25;27.53;;;26.00;;
11039;SDS011;5573;49.592;8.662;2023-04-03T14:24:55;29.97;;;28.37;;
11039;SDS011;5573;49.592;8.662;2023-04-03T14:27:24;28.17;;;26.70;;
11039;SDS011;5573;49.592;8.662;2023-04-03T14:29:55;27.45;;;26.00;;
11039;SDS011;5573;49.592;8.662;2023-04-03T14:32:24;28.30;;;26.80;;
11039;SDS011;5573;49.592;8.662;2023-04-03T14:34:53;28.13;;;26.63;;
11039;SDS011;5573;49.592;8.662;2023-04-03T14:37:22;26.47;;;25.07;;
11039;SDS011;5573;49.592;8.662;2023-04-03T14:39:52;25.03;;;23.77;;
11039;SDS011;5573;49.592;8.662;2023-04-03T14:42:21;25.97;;;24.60;;
11039;SDS011;5573;49.592;8.662;2023-04-03T14:44:50;26.20;;;24.80;;
11039;SDS011;5573;49.592;8.662;2023-04-03T14:47:19;27.10;;;25.13;;
11039;SDS011;5573;49.592;8.662;2023-04-03T14:49:57;21.23;;;20.02;;
11039;SDS011;5573;49.592;8.662;2023-04-03T14:52:26;22.93;;;21.77;;
11039;SDS011;5573;49.592;8.662;2023-04-03T14:54:57;27.60;;;26.13;;
11039;SDS011;5573;49.592;8.662;2023-04-03T14:57:27;27.48;;;26.02;;
11039;SDS011;5573;49.592;8.662;2023-04-03T14:59:56;26.77;;;25.33;;
11039;SDS011;5573;49.592;8.662;2023-04-03T15:02:25;27.17;;;25.33;;
11039;SDS011;5573;49.592;8.662;2023-04-03T15:04:56;26.27;;;24.87;;
11039;SDS011;5573;49.592;8.662;2023-04-03T15:07:25;26.63;;;25.23;;
11039;SDS011;5573;49.592;8.662;2023-04-03T15:09:54;31.57;;;29.90;;
11039;SDS011;5573;49.592;8.662;2023-04-03T15:12:24;29.30;;;27.80;;
11039;SDS011;5573;49.592;8.662;2023-04-03T15:14:52;27.53;;;26.10;;
11039;SDS011;5573;49.592;8.662;2023-04-03T15:17:28;25.87;;;24.47;;
11039;SDS011;5573;49.592;8.662;2023-04-03T15:19:56;29.37;;;27.77;;
11039;SDS011;5573;49.592;8.662;2023-04-03T15:22:25;28.13;;;26.67;;